sensor_id;sensor_type;location;lat;lon;timestamp;P1;durP1;ratioP1;P2;durP2;ratioP2
66353;SDS011;53150;48.296;16.452;2022-08-24T00:00:07;9.32;;;5.93;;
66353;SDS011;53150;48.296;16.452;2022-08-24T00:02:33;8.23;;;5.30;;
66353;SDS011;53150;48.296;16.452;2022-08-24T00:04:59;7.57;;;5.15;;
66353;SDS011;53150;48.296;16.452;2022-08-24T00:07:25;8.48;;;5.10;;
66353;SDS011;53150;48.296;16.452;2022-08-24T00:09:51;9.30;;;5.70;;
66353;SDS011;53150;48.296;16.452;2022-08-24T00:12:18;9.25;;;5.97;;
66353;SDS011;53150;48.296;16.452;2022-08-24T00:14:44;7.80;;;5.25;;
66353;SDS011;53150;48.296;16.452;2022-08-24T00:17:11;9.93;;;5.40;;
66353;SDS011;53150;48.296;16.452;2022-08-24T00:19:37;10.43;;;6.38;;
66353;SDS011;53150;48.296;16.452;2022-08-24T00:22:04;8.18;;;5.30;;
66353;SDS011;53150;48.296;16.452;2022-08-24T00:24:30;9.13;;;5.13;;
66353;SDS011;53150;48.296;16.452;2022-08-24T00:26:56;9.75;;;5.60;;
66353;SDS011;53150;48.296;16.452;2022-08-24T00:29:23;8.45;;;5.20;;
66353;SDS011;53150;48.296;16.452;2022-08-24T00:31:49;8.45;;;5.63;;
66353;SDS011;53150;48.296;16.452;2022-08-24T00:34:16;9.35;;;5.65;;
66353;SDS011;53150;48.296;16.452;2022-08-24T00:36:43;9.07;;;5.07;;
66353;SDS011;53150;48.296;16.452;2022-08-24T00:39:09;9.35;;;5.68;;
66353;SDS011;53150;48.296;16.452;2022-08-24T00:41:39;8.00;;;4.95;;
66353;SDS011;53150;48.296;16.452;2022-08-24T00:44:05;8.20;;;5.72;;
66353;SDS011;53150;48.296;16.452;2022-08-24T00:49:22;8.75;;;5.40;;
66353;SDS011;53150;48.296;16.452;2022-08-24T00:51:50;8.90;;;5.40;;
66353;SDS011;53150;48.296;16.452;2022-08-24T00:54:19;10.25;;;5.88;;
66353;SDS011;53150;48.296;16.452;2022-08-24T00:56:49;8.77;;;4.90;;
66353;SDS011;53150;48.296;16.452;2022-08-24T00:59:20;8.32;;;5.38;;
66353;SDS011;53150;48.296;16.452;2022-08-24T01:01:47;8.40;;;5.25;;
66353;SDS011;53150;48.296;16.452;2022-08-24T01:04:16;8.52;;;5.55;;
66353;SDS011;53150;48.296;16.452;2022-08-24T01:06:43;8.80;;;5.07;;
66353;SDS011;53150;48.296;16.452;2022-08-24T01:09:10;7.75;;;4.95;;
66353;SDS011;53150;48.296;16.452;2022-08-24T01:11:36;7.50;;;5.15;;
66353;SDS011;53150;48.296;16.452;2022-08-24T01:14:02;8.25;;;5.30;;
66353;SDS011;53150;48.296;16.452;2022-08-24T01:16:28;7.28;;;4.68;;
66353;SDS011;53150;48.296;16.452;2022-08-24T01:19:21;7.65;;;4.97;;
66353;SDS011;53150;48.296;16.452;2022-08-24T01:22:10;7.25;;;4.75;;
66353;SDS011;53150;48.296;16.452;2022-08-24T01:24:40;8.32;;;4.65;;
66353;SDS011;53150;48.296;16.452;2022-08-24T01:27:07;8.43;;;5.45;;
66353;SDS011;53150;48.296;16.452;2022-08-24T01:29:34;8.07;;;4.88;;
66353;SDS011;53150;48.296;16.452;2022-08-24T01:32:02;7.15;;;4.70;;
66353;SDS011;53150;48.296;16.452;2022-08-24T01:34:29;8.25;;;5.55;;
66353;SDS011;53150;48.296;16.452;2022-08-24T01:36:55;8.45;;;4.72;;
66353;SDS011;53150;48.296;16.452;2022-08-24T01:42:18;7.05;;;4.85;;
66353;SDS011;53150;48.296;16.452;2022-08-24T01:44:45;8.85;;;5.07;;
66353;SDS011;53150;48.296;16.452;2022-08-24T01:47:12;7.60;;;4.60;;
66353;SDS011;53150;48.296;16.452;2022-08-24T01:49:39;6.10;;;4.00;;
66353;SDS011;53150;48.296;16.452;2022-08-24T01:52:06;7.63;;;4.70;;
66353;SDS011;53150;48.296;16.452;2022-08-24T01:54:33;8.35;;;4.72;;
66353;SDS011;53150;48.296;16.452;2022-08-24T01:56:59;7.38;;;4.95;;
66353;SDS011;53150;48.296;16.452;2022-08-24T01:59:25;7.72;;;5.10;;
66353;SDS011;53150;48.296;16.452;2022-08-24T02:01:54;7.05;;;4.35;;
66353;SDS011;53150;48.296;16.452;2022-08-24T02:04:21;7.68;;;4.57;;
66353;SDS011;53150;48.296;16.452;2022-08-24T02:06:47;8.13;;;5.30;;
66353;SDS011;53150;48.296;16.452;2022-08-24T02:09:13;8.13;;;4.68;;
66353;SDS011;53150;48.296;16.452;2022-08-24T02:11:40;8.35;;;4.90;;
66353;SDS011;53150;48.296;16.452;2022-08-24T02:14:06;7.82;;;4.65;;
66353;SDS011;53150;48.296;16.452;2022-08-24T02:16:32;9.52;;;4.15;;
66353;SDS011;53150;48.296;16.452;2022-08-24T02:18:58;7.28;;;4.22;;
66353;SDS011;53150;48.296;16.452;2022-08-24T02:21:24;7.30;;;5.43;;
66353;SDS011;53150;48.296;16.452;2022-08-24T02:23:51;9.65;;;5.63;;
66353;SDS011;53150;48.296;16.452;2022-08-24T02:26:17;8.13;;;5.18;;
66353;SDS011;53150;48.296;16.452;2022-08-24T02:28:43;8.23;;;4.97;;
66353;SDS011;53150;48.296;16.452;2022-08-24T02:31:10;8.88;;;4.88;;
66353;SDS011;53150;48.296;16.452;2022-08-24T02:33:37;7.53;;;5.05;;
66353;SDS011;53150;48.296;16.452;2022-08-24T02:36:03;7.88;;;4.68;;
66353;SDS011;53150;48.296;16.452;2022-08-24T02:38:30;7.18;;;4.57;;
66353;SDS011;53150;48.296;16.452;2022-08-24T02:40:56;7.60;;;4.95;;
66353;SDS011;53150;48.296;16.452;2022-08-24T02:43:22;6.90;;;4.20;;
66353;SDS011;53150;48.296;16.452;2022-08-24T02:45:49;6.65;;;4.45;;
66353;SDS011;53150;48.296;16.452;2022-08-24T02:48:15;7.07;;;4.68;;
66353;SDS011;53150;48.296;16.452;2022-08-24T02:50:43;8.90;;;5.15;;
66353;SDS011;53150;48.296;16.452;2022-08-24T02:53:10;9.23;;;4.93;;
66353;SDS011;53150;48.296;16.452;2022-08-24T02:55:38;8.85;;;5.20;;
66353;SDS011;53150;48.296;16.452;2022-08-24T02:58:05;7.38;;;4.78;;
66353;SDS011;53150;48.296;16.452;2022-08-24T03:00:31;7.15;;;4.82;;
66353;SDS011;53150;48.296;16.452;2022-08-24T03:02:57;7.63;;;4.93;;
66353;SDS011;53150;48.296;16.452;2022-08-24T03:05:23;8.55;;;5.20;;
66353;SDS011;53150;48.296;16.452;2022-08-24T03:07:50;7.57;;;4.75;;
66353;SDS011;53150;48.296;16.452;2022-08-24T03:10:17;7.80;;;4.93;;
66353;SDS011;53150;48.296;16.452;2022-08-24T03:12:43;8.50;;;4.60;;
66353;SDS011;53150;48.296;16.452;2022-08-24T03:15:09;8.40;;;5.07;;
66353;SDS011;53150;48.296;16.452;2022-08-24T03:17:36;7.20;;;4.75;;
66353;SDS011;53150;48.296;16.452;2022-08-24T03:20:03;8.35;;;5.63;;
66353;SDS011;53150;48.296;16.452;2022-08-24T03:22:30;8.02;;;4.72;;
66353;SDS011;53150;48.296;16.452;2022-08-24T03:24:56;7.93;;;4.70;;
66353;SDS011;53150;48.296;16.452;2022-08-24T03:27:22;8.25;;;5.18;;
66353;SDS011;53150;48.296;16.452;2022-08-24T03:29:48;8.13;;;5.30;;
66353;SDS011;53150;48.296;16.452;2022-08-24T03:32:14;8.82;;;4.95;;
66353;SDS011;53150;48.296;16.452;2022-08-24T03:34:40;8.68;;;5.32;;
66353;SDS011;53150;48.296;16.452;2022-08-24T03:37:07;9.02;;;5.20;;
66353;SDS011;53150;48.296;16.452;2022-08-24T03:39:33;9.55;;;6.10;;
66353;SDS011;53150;48.296;16.452;2022-08-24T03:41:59;7.72;;;5.03;;
66353;SDS011;53150;48.296;16.452;2022-08-24T03:44:25;7.70;;;4.95;;
66353;SDS011;53150;48.296;16.452;2022-08-24T03:46:51;9.23;;;5.40;;
66353;SDS011;53150;48.296;16.452;2022-08-24T03:49:18;9.23;;;5.43;;
66353;SDS011;53150;48.296;16.452;2022-08-24T03:51:44;7.93;;;5.20;;
66353;SDS011;53150;48.296;16.452;2022-08-24T03:54:10;8.65;;;5.05;;
66353;SDS011;53150;48.296;16.452;2022-08-24T03:56:37;9.43;;;4.90;;
66353;SDS011;53150;48.296;16.452;2022-08-24T03:59:03;7.43;;;4.80;;
66353;SDS011;53150;48.296;16.452;2022-08-24T04:01:30;8.20;;;5.10;;
66353;SDS011;53150;48.296;16.452;2022-08-24T04:03:56;10.85;;;6.05;;
66353;SDS011;53150;48.296;16.452;2022-08-24T04:06:22;8.57;;;5.25;;
66353;SDS011;53150;48.296;16.452;2022-08-24T04:08:49;7.72;;;5.57;;
66353;SDS011;53150;48.296;16.452;2022-08-24T04:11:18;8.02;;;5.55;;
66353;SDS011;53150;48.296;16.452;2022-08-24T04:13:44;9.02;;;5.40;;
66353;SDS011;53150;48.296;16.452;2022-08-24T04:16:12;7.47;;;5.35;;
66353;SDS011;53150;48.296;16.452;2022-08-24T04:18:39;8.48;;;5.13;;
66353;SDS011;53150;48.296;16.452;2022-08-24T04:21:05;8.48;;;5.03;;
66353;SDS011;53150;48.296;16.452;2022-08-24T04:23:32;8.60;;;5.03;;
66353;SDS011;53150;48.296;16.452;2022-08-24T04:26:01;8.95;;;6.05;;
66353;SDS011;53150;48.296;16.452;2022-08-24T04:28:28;8.63;;;5.50;;
66353;SDS011;53150;48.296;16.452;2022-08-24T04:30:54;8.77;;;5.45;;
66353;SDS011;53150;48.296;16.452;2022-08-24T04:33:21;11.40;;;4.82;;
66353;SDS011;53150;48.296;16.452;2022-08-24T04:35:47;10.27;;;5.68;;
66353;SDS011;53150;48.296;16.452;2022-08-24T04:38:17;8.43;;;5.50;;
66353;SDS011;53150;48.296;16.452;2022-08-24T04:40:44;8.18;;;5.30;;
66353;SDS011;53150;48.296;16.452;2022-08-24T04:43:11;8.07;;;5.25;;
66353;SDS011;53150;48.296;16.452;2022-08-24T04:45:43;8.02;;;5.22;;
66353;SDS011;53150;48.296;16.452;2022-08-24T04:48:09;8.07;;;5.05;;
66353;SDS011;53150;48.296;16.452;2022-08-24T04:50:36;8.77;;;5.35;;
66353;SDS011;53150;48.296;16.452;2022-08-24T04:53:03;7.30;;;5.25;;
66353;SDS011;53150;48.296;16.452;2022-08-24T04:55:30;12.68;;;6.03;;
66353;SDS011;53150;48.296;16.452;2022-08-24T04:57:56;10.30;;;5.70;;
66353;SDS011;53150;48.296;16.452;2022-08-24T05:00:22;9.43;;;5.57;;
66353;SDS011;53150;48.296;16.452;2022-08-24T05:02:48;8.85;;;5.13;;
66353;SDS011;53150;48.296;16.452;2022-08-24T05:05:14;8.50;;;5.07;;
66353;SDS011;53150;48.296;16.452;2022-08-24T05:07:41;8.38;;;5.00;;
66353;SDS011;53150;48.296;16.452;2022-08-24T05:10:08;10.85;;;4.90;;
66353;SDS011;53150;48.296;16.452;2022-08-24T05:12:35;8.95;;;5.35;;
66353;SDS011;53150;48.296;16.452;2022-08-24T05:15:02;10.43;;;5.10;;
66353;SDS011;53150;48.296;16.452;2022-08-24T05:17:29;9.25;;;5.03;;
66353;SDS011;53150;48.296;16.452;2022-08-24T05:19:55;8.90;;;5.43;;
66353;SDS011;53150;48.296;16.452;2022-08-24T05:22:22;7.75;;;5.13;;
66353;SDS011;53150;48.296;16.452;2022-08-24T05:24:48;7.90;;;5.07;;
66353;SDS011;53150;48.296;16.452;2022-08-24T05:27:15;7.63;;;4.68;;
66353;SDS011;53150;48.296;16.452;2022-08-24T05:29:41;8.10;;;4.95;;
66353;SDS011;53150;48.296;16.452;2022-08-24T05:32:08;8.48;;;4.90;;
66353;SDS011;53150;48.296;16.452;2022-08-24T05:34:34;11.30;;;5.63;;
66353;SDS011;53150;48.296;16.452;2022-08-24T05:37:00;7.63;;;5.13;;
66353;SDS011;53150;48.296;16.452;2022-08-24T05:39:26;7.95;;;4.93;;
66353;SDS011;53150;48.296;16.452;2022-08-24T05:41:55;6.45;;;4.18;;
66353;SDS011;53150;48.296;16.452;2022-08-24T05:44:22;8.43;;;5.28;;
66353;SDS011;53150;48.296;16.452;2022-08-24T05:46:48;7.50;;;5.15;;
66353;SDS011;53150;48.296;16.452;2022-08-24T05:49:14;7.63;;;5.00;;
66353;SDS011;53150;48.296;16.452;2022-08-24T05:51:40;7.55;;;5.00;;
66353;SDS011;53150;48.296;16.452;2022-08-24T05:54:07;8.80;;;5.25;;
66353;SDS011;53150;48.296;16.452;2022-08-24T05:56:33;8.85;;;5.15;;
66353;SDS011;53150;48.296;16.452;2022-08-24T05:58:59;8.00;;;5.10;;
66353;SDS011;53150;48.296;16.452;2022-08-24T06:01:25;8.43;;;5.82;;
66353;SDS011;53150;48.296;16.452;2022-08-24T06:03:52;7.70;;;5.45;;
66353;SDS011;53150;48.296;16.452;2022-08-24T06:06:19;7.90;;;5.43;;
66353;SDS011;53150;48.296;16.452;2022-08-24T06:08:46;8.30;;;5.10;;
66353;SDS011;53150;48.296;16.452;2022-08-24T06:11:19;8.60;;;5.65;;
66353;SDS011;53150;48.296;16.452;2022-08-24T06:13:48;8.55;;;5.55;;
66353;SDS011;53150;48.296;16.452;2022-08-24T06:16:14;8.90;;;5.35;;
66353;SDS011;53150;48.296;16.452;2022-08-24T06:18:40;7.38;;;4.82;;
66353;SDS011;53150;48.296;16.452;2022-08-24T06:21:08;7.97;;;5.20;;
66353;SDS011;53150;48.296;16.452;2022-08-24T06:23:34;8.77;;;5.53;;
66353;SDS011;53150;48.296;16.452;2022-08-24T06:26:01;8.50;;;5.32;;
66353;SDS011;53150;48.296;16.452;2022-08-24T06:28:45;9.48;;;6.05;;
66353;SDS011;53150;48.296;16.452;2022-08-24T06:31:11;8.35;;;5.03;;
66353;SDS011;53150;48.296;16.452;2022-08-24T06:33:38;7.97;;;5.38;;
66353;SDS011;53150;48.296;16.452;2022-08-24T06:36:04;8.73;;;5.65;;
66353;SDS011;53150;48.296;16.452;2022-08-24T06:38:30;8.15;;;6.20;;
66353;SDS011;53150;48.296;16.452;2022-08-24T06:40:56;8.25;;;5.35;;
66353;SDS011;53150;48.296;16.452;2022-08-24T06:43:22;8.18;;;5.40;;
66353;SDS011;53150;48.296;16.452;2022-08-24T06:45:49;7.75;;;5.78;;
66353;SDS011;53150;48.296;16.452;2022-08-24T06:48:15;9.35;;;5.80;;
66353;SDS011;53150;48.296;16.452;2022-08-24T06:50:41;8.93;;;5.63;;
66353;SDS011;53150;48.296;16.452;2022-08-24T06:53:07;7.90;;;5.50;;
66353;SDS011;53150;48.296;16.452;2022-08-24T06:55:33;8.95;;;6.65;;
66353;SDS011;53150;48.296;16.452;2022-08-24T06:57:59;9.55;;;5.95;;
66353;SDS011;53150;48.296;16.452;2022-08-24T07:00:27;9.00;;;6.32;;
66353;SDS011;53150;48.296;16.452;2022-08-24T07:02:54;9.15;;;5.55;;
66353;SDS011;53150;48.296;16.452;2022-08-24T07:05:20;8.57;;;5.70;;
66353;SDS011;53150;48.296;16.452;2022-08-24T07:07:46;8.15;;;5.57;;
66353;SDS011;53150;48.296;16.452;2022-08-24T07:10:13;7.68;;;5.55;;
66353;SDS011;53150;48.296;16.452;2022-08-24T07:12:39;10.43;;;6.32;;
66353;SDS011;53150;48.296;16.452;2022-08-24T07:15:05;11.20;;;5.68;;
66353;SDS011;53150;48.296;16.452;2022-08-24T07:17:31;8.27;;;5.95;;
66353;SDS011;53150;48.296;16.452;2022-08-24T07:19:57;9.48;;;5.88;;
66353;SDS011;53150;48.296;16.452;2022-08-24T07:22:23;8.60;;;5.30;;
66353;SDS011;53150;48.296;16.452;2022-08-24T07:24:49;9.27;;;6.03;;
66353;SDS011;53150;48.296;16.452;2022-08-24T07:27:15;9.05;;;6.10;;
66353;SDS011;53150;48.296;16.452;2022-08-24T07:29:41;8.07;;;5.93;;
66353;SDS011;53150;48.296;16.452;2022-08-24T07:32:07;8.68;;;6.20;;
66353;SDS011;53150;48.296;16.452;2022-08-24T07:34:34;9.20;;;6.60;;
66353;SDS011;53150;48.296;16.452;2022-08-24T07:37:01;9.15;;;6.43;;
66353;SDS011;53150;48.296;16.452;2022-08-24T07:39:27;8.68;;;5.13;;
66353;SDS011;53150;48.296;16.452;2022-08-24T07:41:54;7.72;;;4.88;;
66353;SDS011;53150;48.296;16.452;2022-08-24T07:44:21;8.77;;;5.75;;
66353;SDS011;53150;48.296;16.452;2022-08-24T07:46:47;7.35;;;5.35;;
66353;SDS011;53150;48.296;16.452;2022-08-24T07:49:13;9.23;;;5.57;;
66353;SDS011;53150;48.296;16.452;2022-08-24T07:51:39;8.18;;;5.40;;
66353;SDS011;53150;48.296;16.452;2022-08-24T07:54:05;8.43;;;6.70;;
66353;SDS011;53150;48.296;16.452;2022-08-24T07:56:31;7.53;;;5.30;;
66353;SDS011;53150;48.296;16.452;2022-08-24T07:58:58;7.18;;;5.22;;
66353;SDS011;53150;48.296;16.452;2022-08-24T08:01:24;8.10;;;5.13;;
66353;SDS011;53150;48.296;16.452;2022-08-24T08:03:51;7.05;;;4.97;;
66353;SDS011;53150;48.296;16.452;2022-08-24T08:06:17;8.43;;;5.25;;
66353;SDS011;53150;48.296;16.452;2022-08-24T08:08:46;8.10;;;5.50;;
66353;SDS011;53150;48.296;16.452;2022-08-24T08:11:12;10.07;;;5.38;;
66353;SDS011;53150;48.296;16.452;2022-08-24T08:13:38;8.30;;;5.40;;
66353;SDS011;53150;48.296;16.452;2022-08-24T08:16:04;8.23;;;4.63;;
66353;SDS011;53150;48.296;16.452;2022-08-24T08:18:30;7.05;;;5.20;;
66353;SDS011;53150;48.296;16.452;2022-08-24T08:20:57;7.15;;;5.45;;
66353;SDS011;53150;48.296;16.452;2022-08-24T08:23:23;9.93;;;5.43;;
66353;SDS011;53150;48.296;16.452;2022-08-24T08:26:15;7.43;;;4.72;;
66353;SDS011;53150;48.296;16.452;2022-08-24T08:28:41;7.53;;;5.05;;
66353;SDS011;53150;48.296;16.452;2022-08-24T08:31:08;8.95;;;5.28;;
66353;SDS011;53150;48.296;16.452;2022-08-24T08:33:34;7.38;;;5.05;;
66353;SDS011;53150;48.296;16.452;2022-08-24T08:36:11;8.07;;;4.78;;
66353;SDS011;53150;48.296;16.452;2022-08-24T08:38:39;7.80;;;5.05;;
66353;SDS011;53150;48.296;16.452;2022-08-24T08:41:15;7.95;;;5.47;;
66353;SDS011;53150;48.296;16.452;2022-08-24T08:46:35;6.85;;;4.82;;
66353;SDS011;53150;48.296;16.452;2022-08-24T08:57:21;15.88;;;6.47;;
66353;SDS011;53150;48.296;16.452;2022-08-24T09:04:46;8.07;;;5.28;;
66353;SDS011;53150;48.296;16.452;2022-08-24T09:07:20;8.35;;;5.40;;
66353;SDS011;53150;48.296;16.452;2022-08-24T09:15:14;8.02;;;4.95;;
66353;SDS011;53150;48.296;16.452;2022-08-24T09:17:56;7.88;;;5.90;;
66353;SDS011;53150;48.296;16.452;2022-08-24T09:20:30;8.05;;;5.57;;
66353;SDS011;53150;48.296;16.452;2022-08-24T09:26:01;7.60;;;5.40;;
66353;SDS011;53150;48.296;16.452;2022-08-24T09:28:45;8.27;;;5.65;;
66353;SDS011;53150;48.296;16.452;2022-08-24T09:33:43;8.20;;;5.07;;
66353;SDS011;53150;48.296;16.452;2022-08-24T09:36:11;7.47;;;4.97;;
66353;SDS011;53150;48.296;16.452;2022-08-24T09:46:21;8.48;;;5.35;;
66353;SDS011;53150;48.296;16.452;2022-08-24T10:06:59;8.57;;;6.13;;
66353;SDS011;53150;48.296;16.452;2022-08-24T10:12:12;8.35;;;5.75;;
66353;SDS011;53150;48.296;16.452;2022-08-24T10:18:05;7.60;;;5.70;;
66353;SDS011;53150;48.296;16.452;2022-08-24T10:25:28;7.70;;;5.75;;
66353;SDS011;53150;48.296;16.452;2022-08-24T10:33:09;8.18;;;5.55;;
66353;SDS011;53150;48.296;16.452;2022-08-24T10:39:01;7.25;;;5.47;;
66353;SDS011;53150;48.296;16.452;2022-08-24T10:51:50;8.13;;;5.07;;
66353;SDS011;53150;48.296;16.452;2022-08-24T10:54:23;8.10;;;5.53;;
66353;SDS011;53150;48.296;16.452;2022-08-24T10:57:06;8.65;;;5.45;;
66353;SDS011;53150;48.296;16.452;2022-08-24T10:59:35;9.55;;;5.35;;
66353;SDS011;53150;48.296;16.452;2022-08-24T11:02:27;8.10;;;5.75;;
66353;SDS011;53150;48.296;16.452;2022-08-24T11:04:54;7.15;;;5.38;;
66353;SDS011;53150;48.296;16.452;2022-08-24T11:07:21;7.95;;;5.57;;
66353;SDS011;53150;48.296;16.452;2022-08-24T11:09:53;8.10;;;5.95;;
66353;SDS011;53150;48.296;16.452;2022-08-24T11:12:30;8.48;;;5.90;;
66353;SDS011;53150;48.296;16.452;2022-08-24T11:14:58;8.23;;;5.90;;
66353;SDS011;53150;48.296;16.452;2022-08-24T11:17:26;7.60;;;5.70;;
66353;SDS011;53150;48.296;16.452;2022-08-24T11:19:52;7.40;;;5.97;;
66353;SDS011;53150;48.296;16.452;2022-08-24T11:24:57;7.50;;;5.78;;
66353;SDS011;53150;48.296;16.452;2022-08-24T11:34:54;8.88;;;5.80;;
66353;SDS011;53150;48.296;16.452;2022-08-24T11:37:30;7.80;;;5.47;;
66353;SDS011;53150;48.296;16.452;2022-08-24T11:39:56;8.93;;;5.55;;
66353;SDS011;53150;48.296;16.452;2022-08-24T11:52:48;8.23;;;5.55;;
66353;SDS011;53150;48.296;16.452;2022-08-24T12:00:20;8.63;;;6.22;;
66353;SDS011;53150;48.296;16.452;2022-08-24T12:21:01;8.45;;;5.82;;
66353;SDS011;53150;48.296;16.452;2022-08-24T12:23:32;9.18;;;6.43;;
66353;SDS011;53150;48.296;16.452;2022-08-24T12:26:02;8.73;;;6.35;;
66353;SDS011;53150;48.296;16.452;2022-08-24T12:28:51;8.63;;;6.18;;
66353;SDS011;53150;48.296;16.452;2022-08-24T12:31:17;9.43;;;6.68;;
66353;SDS011;53150;48.296;16.452;2022-08-24T12:33:48;8.27;;;6.63;;
66353;SDS011;53150;48.296;16.452;2022-08-24T12:36:24;9.57;;;6.60;;
66353;SDS011;53150;48.296;16.452;2022-08-24T12:38:59;9.02;;;6.55;;
66353;SDS011;53150;48.296;16.452;2022-08-24T12:41:26;8.80;;;6.32;;
66353;SDS011;53150;48.296;16.452;2022-08-24T12:43:58;8.15;;;6.55;;
66353;SDS011;53150;48.296;16.452;2022-08-24T12:46:26;9.30;;;6.38;;
66353;SDS011;53150;48.296;16.452;2022-08-24T12:48:56;8.60;;;6.18;;
66353;SDS011;53150;48.296;16.452;2022-08-24T12:51:43;8.57;;;5.90;;
66353;SDS011;53150;48.296;16.452;2022-08-24T13:02:24;9.65;;;6.43;;
66353;SDS011;53150;48.296;16.452;2022-08-24T13:15:15;9.68;;;6.47;;
66353;SDS011;53150;48.296;16.452;2022-08-24T13:17:40;9.30;;;6.00;;
66353;SDS011;53150;48.296;16.452;2022-08-24T13:23:02;8.88;;;6.38;;
66353;SDS011;53150;48.296;16.452;2022-08-24T13:46:11;9.68;;;6.05;;
66353;SDS011;53150;48.296;16.452;2022-08-24T13:54:01;9.77;;;6.85;;
66353;SDS011;53150;48.296;16.452;2022-08-24T13:59:31;8.63;;;6.22;;
66353;SDS011;53150;48.296;16.452;2022-08-24T14:04:35;8.98;;;6.00;;
66353;SDS011;53150;48.296;16.452;2022-08-24T14:07:07;10.07;;;6.35;;
66353;SDS011;53150;48.296;16.452;2022-08-24T14:17:56;9.85;;;6.10;;
66353;SDS011;53150;48.296;16.452;2022-08-24T14:37:21;7.93;;;5.78;;
66353;SDS011;53150;48.296;16.452;2022-08-24T14:42:18;8.43;;;5.95;;
66353;SDS011;53150;48.296;16.452;2022-08-24T14:47:19;7.90;;;6.32;;
66353;SDS011;53150;48.296;16.452;2022-08-24T15:05:45;8.93;;;6.90;;
66353;SDS011;53150;48.296;16.452;2022-08-24T15:08:30;7.80;;;6.03;;
66353;SDS011;53150;48.296;16.452;2022-08-24T15:11:09;7.68;;;5.72;;
66353;SDS011;53150;48.296;16.452;2022-08-24T15:16:19;8.35;;;6.30;;
66353;SDS011;53150;48.296;16.452;2022-08-24T15:18:48;9.35;;;6.70;;
66353;SDS011;53150;48.296;16.452;2022-08-24T15:28:50;10.30;;;6.90;;
66353;SDS011;53150;48.296;16.452;2022-08-24T15:31:19;9.63;;;6.68;;
66353;SDS011;53150;48.296;16.452;2022-08-24T15:33:55;9.40;;;6.53;;
66353;SDS011;53150;48.296;16.452;2022-08-24T15:36:29;8.68;;;6.95;;
66353;SDS011;53150;48.296;16.452;2022-08-24T15:38:57;8.23;;;5.90;;
66353;SDS011;53150;48.296;16.452;2022-08-24T15:41:26;8.82;;;6.50;;
66353;SDS011;53150;48.296;16.452;2022-08-24T15:46:45;8.70;;;6.47;;
66353;SDS011;53150;48.296;16.452;2022-08-24T15:51:43;8.55;;;6.40;;
66353;SDS011;53150;48.296;16.452;2022-08-24T15:57:02;9.55;;;6.30;;
66353;SDS011;53150;48.296;16.452;2022-08-24T15:59:31;8.70;;;6.30;;
66353;SDS011;53150;48.296;16.452;2022-08-24T16:04:51;8.27;;;6.63;;
66353;SDS011;53150;48.296;16.452;2022-08-24T16:07:28;9.27;;;6.30;;
66353;SDS011;53150;48.296;16.452;2022-08-24T16:10:09;8.32;;;6.40;;
66353;SDS011;53150;48.296;16.452;2022-08-24T16:12:35;9.25;;;6.95;;
66353;SDS011;53150;48.296;16.452;2022-08-24T16:15:15;8.60;;;6.47;;
66353;SDS011;53150;48.296;16.452;2022-08-24T16:17:45;8.38;;;6.20;;
66353;SDS011;53150;48.296;16.452;2022-08-24T16:20:16;8.13;;;6.00;;
66353;SDS011;53150;48.296;16.452;2022-08-24T16:22:56;8.65;;;6.53;;
66353;SDS011;53150;48.296;16.452;2022-08-24T16:25:31;8.90;;;6.60;;
66353;SDS011;53150;48.296;16.452;2022-08-24T16:31:06;10.73;;;6.82;;
66353;SDS011;53150;48.296;16.452;2022-08-24T16:35:55;9.13;;;6.95;;
66353;SDS011;53150;48.296;16.452;2022-08-24T16:38:21;9.02;;;6.90;;
66353;SDS011;53150;48.296;16.452;2022-08-24T16:40:48;10.30;;;6.57;;
66353;SDS011;53150;48.296;16.452;2022-08-24T16:43:14;9.90;;;6.85;;
66353;SDS011;53150;48.296;16.452;2022-08-24T16:45:40;9.85;;;6.97;;
66353;SDS011;53150;48.296;16.452;2022-08-24T16:48:06;7.93;;;6.35;;
66353;SDS011;53150;48.296;16.452;2022-08-24T16:50:32;8.73;;;6.45;;
66353;SDS011;53150;48.296;16.452;2022-08-24T16:52:58;9.45;;;6.53;;
66353;SDS011;53150;48.296;16.452;2022-08-24T16:55:24;8.80;;;6.78;;
66353;SDS011;53150;48.296;16.452;2022-08-24T16:57:52;10.48;;;6.90;;
66353;SDS011;53150;48.296;16.452;2022-08-24T17:00:19;8.32;;;6.47;;
66353;SDS011;53150;48.296;16.452;2022-08-24T17:02:46;9.13;;;6.55;;
66353;SDS011;53150;48.296;16.452;2022-08-24T17:05:12;8.90;;;6.65;;
66353;SDS011;53150;48.296;16.452;2022-08-24T17:07:39;8.98;;;6.70;;
66353;SDS011;53150;48.296;16.452;2022-08-24T17:10:06;8.95;;;6.97;;
66353;SDS011;53150;48.296;16.452;2022-08-24T17:12:33;9.13;;;7.13;;
66353;SDS011;53150;48.296;16.452;2022-08-24T17:15:00;9.32;;;6.78;;
66353;SDS011;53150;48.296;16.452;2022-08-24T17:17:27;9.25;;;6.75;;
66353;SDS011;53150;48.296;16.452;2022-08-24T17:19:53;9.32;;;6.65;;
66353;SDS011;53150;48.296;16.452;2022-08-24T17:22:21;8.63;;;6.88;;
66353;SDS011;53150;48.296;16.452;2022-08-24T17:24:47;9.93;;;6.97;;
66353;SDS011;53150;48.296;16.452;2022-08-24T17:27:14;8.88;;;6.65;;
66353;SDS011;53150;48.296;16.452;2022-08-24T17:29:41;9.30;;;6.80;;
66353;SDS011;53150;48.296;16.452;2022-08-24T17:32:08;8.40;;;6.47;;
66353;SDS011;53150;48.296;16.452;2022-08-24T17:34:34;10.30;;;6.60;;
66353;SDS011;53150;48.296;16.452;2022-08-24T17:37:01;9.73;;;6.78;;
66353;SDS011;53150;48.296;16.452;2022-08-24T17:39:27;8.95;;;6.68;;
66353;SDS011;53150;48.296;16.452;2022-08-24T17:41:54;9.30;;;7.03;;
66353;SDS011;53150;48.296;16.452;2022-08-24T17:44:21;9.82;;;6.97;;
66353;SDS011;53150;48.296;16.452;2022-08-24T17:46:49;10.13;;;7.60;;
66353;SDS011;53150;48.296;16.452;2022-08-24T17:49:15;10.93;;;7.93;;
66353;SDS011;53150;48.296;16.452;2022-08-24T17:51:42;9.30;;;7.32;;
66353;SDS011;53150;48.296;16.452;2022-08-24T17:54:08;9.98;;;6.90;;
66353;SDS011;53150;48.296;16.452;2022-08-24T17:56:34;9.85;;;6.97;;
66353;SDS011;53150;48.296;16.452;2022-08-24T17:59:06;10.02;;;6.93;;
66353;SDS011;53150;48.296;16.452;2022-08-24T18:01:47;9.05;;;6.85;;
66353;SDS011;53150;48.296;16.452;2022-08-24T18:04:15;9.20;;;7.07;;
66353;SDS011;53150;48.296;16.452;2022-08-24T18:06:41;9.13;;;7.07;;
66353;SDS011;53150;48.296;16.452;2022-08-24T18:09:10;9.02;;;6.70;;
66353;SDS011;53150;48.296;16.452;2022-08-24T18:11:38;8.25;;;6.00;;
66353;SDS011;53150;48.296;16.452;2022-08-24T18:14:05;10.15;;;6.53;;
66353;SDS011;53150;48.296;16.452;2022-08-24T18:16:31;8.90;;;6.50;;
66353;SDS011;53150;48.296;16.452;2022-08-24T18:18:57;8.57;;;6.32;;
66353;SDS011;53150;48.296;16.452;2022-08-24T18:21:23;8.05;;;6.18;;
66353;SDS011;53150;48.296;16.452;2022-08-24T18:23:49;9.30;;;6.43;;
66353;SDS011;53150;48.296;16.452;2022-08-24T18:26:18;7.70;;;6.22;;
66353;SDS011;53150;48.296;16.452;2022-08-24T18:28:45;9.32;;;6.10;;
66353;SDS011;53150;48.296;16.452;2022-08-24T18:31:11;8.77;;;6.95;;
66353;SDS011;53150;48.296;16.452;2022-08-24T18:33:38;10.35;;;6.47;;
66353;SDS011;53150;48.296;16.452;2022-08-24T18:36:04;8.82;;;6.43;;
66353;SDS011;53150;48.296;16.452;2022-08-24T18:38:30;8.98;;;6.28;;
66353;SDS011;53150;48.296;16.452;2022-08-24T18:40:56;9.25;;;6.03;;
66353;SDS011;53150;48.296;16.452;2022-08-24T18:43:24;9.25;;;6.20;;
66353;SDS011;53150;48.296;16.452;2022-08-24T18:45:50;10.05;;;7.18;;
66353;SDS011;53150;48.296;16.452;2022-08-24T18:48:16;8.55;;;6.43;;
66353;SDS011;53150;48.296;16.452;2022-08-24T18:50:43;10.15;;;6.78;;
66353;SDS011;53150;48.296;16.452;2022-08-24T18:53:09;8.65;;;6.38;;
66353;SDS011;53150;48.296;16.452;2022-08-24T18:55:37;8.27;;;6.53;;